Time;durP1;ratioP1;P1;durP2;ratioP2;P2;SDS_P1;SDS_P2;PMS_P1;PMS_P2;Temp;Humidity;BMP_temperature;BMP_pressure;BME280_temperature;BME280_humidity;BME280_pressure;Samples;Min_cycle;Max_cycle;Signal;HPM_P1;HPM_P2
2022/07/31 00:00:28;;;;;;;6.05;2.30;;;20.80;92.50;;;;;;5053514;28;20025;-81
2022/07/31 00:02:53;;;;;;;4.20;1.75;;;20.80;92.50;;;;;;5052974;28;20082;-81
2022/07/31 00:05:19;;;;;;;4.50;1.90;;;20.80;92.60;;;;;;5053452;28;20029;-80
2022/07/31 00:07:45;;;;;;;6.10;2.17;;;20.70;92.60;;;;;;5054824;28;20039;-80
2022/07/31 00:10:11;;;;;;;5.20;1.85;;;20.70;92.60;;;;;;5053282;28;20047;-80
2022/07/31 00:12:36;;;;;;;4.95;1.73;;;20.70;92.60;;;;;;5053058;28;20484;-80
2022/07/31 00:15:04;;;;;;;4.50;1.70;;;20.70;92.70;;;;;;5052651;28;20225;-80
2022/07/31 00:17:29;;;;;;;4.03;1.85;;;20.70;92.70;;;;;;5051762;28;20120;-80
2022/07/31 00:19:55;;;;;;;4.43;1.90;;;20.70;92.70;;;;;;5053184;28;20460;-80
2022/07/31 00:22:20;;;;;;;5.88;2.10;;;20.70;92.60;;;;;;5052755;28;20043;-80
2022/07/31 00:24:46;;;;;;;4.55;2.00;;;20.70;92.70;;;;;;5052382;28;20029;-80
2022/07/31 00:27:11;;;;;;;6.63;2.30;;;20.60;92.70;;;;;;5054111;28;20115;-80
2022/07/31 00:29:37;;;;;;;4.72;2.25;;;20.60;92.60;;;;;;5052452;28;20025;-80
2022/07/31 00:32:03;;;;;;;6.43;1.98;;;20.70;92.60;;;;;;5054124;28;20028;-80
2022/07/31 00:34:29;;;;;;;4.90;1.73;;;20.70;92.60;;;;;;5052881;28;20495;-80
2022/07/31 00:36:54;;;;;;;4.63;1.60;;;20.70;92.60;;;;;;5052161;28;20024;-80
2022/07/31 00:39:20;;;;;;;4.47;1.90;;;20.70;92.50;;;;;;5052375;28;20488;-80
2022/07/31 00:41:45;;;;;;;3.65;1.70;;;20.70;92.50;;;;;;5053682;28;20029;-80
2022/07/31 00:44:12;;;;;;;4.65;2.08;;;20.70;92.40;;;;;;5052334;28;20542;-81
2022/07/31 00:46:38;;;;;;;4.07;1.70;;;20.70;92.40;;;;;;5053161;28;20032;-80
2022/07/31 00:49:08;;;;;;;6.00;2.67;;;20.70;92.40;;;;;;5053582;28;20579;-80
2022/07/31 00:51:34;;;;;;;5.00;1.98;;;20.70;92.50;;;;;;5052284;28;20108;-81
2022/07/31 00:54:00;;;;;;;4.03;1.83;;;20.70;92.50;;;;;;5052261;28;20052;-81
2022/07/31 00:56:25;;;;;;;4.88;1.85;;;20.60;92.40;;;;;;5051816;28;20056;-80
2022/07/31 00:58:51;;;;;;;4.15;1.60;;;20.70;92.50;;;;;;5053253;28;20017;-80
2022/07/31 01:01:17;;;;;;;5.22;1.90;;;20.60;92.50;;;;;;5057537;28;20503;-80
2022/07/31 01:03:42;;;;;;;6.28;1.92;;;20.60;92.50;;;;;;5055940;28;20025;-80
2022/07/31 01:06:08;;;;;;;4.22;1.90;;;20.60;92.50;;;;;;5055592;28;20446;-80
2022/07/31 01:08:34;;;;;;;5.28;2.00;;;20.60;92.50;;;;;;5057875;28;20097;-80
2022/07/31 01:11:04;;;;;;;4.25;1.90;;;20.60;92.50;;;;;;5056509;28;20079;-80
2022/07/31 01:13:38;;;;;;;4.97;2.25;;;20.60;92.50;;;;;;5056157;28;20076;-80
2022/07/31 01:16:08;;;;;;;4.22;1.70;;;20.50;92.50;;;;;;5057286;28;20067;-80
2022/07/31 01:18:35;;;;;;;7.75;2.10;;;20.50;92.50;;;;;;5056181;28;20021;-80
2022/07/31 01:21:06;;;;;;;3.92;1.80;;;20.60;92.50;;;;;;5056086;28;20116;-81
2022/07/31 01:23:47;;;;;;;5.30;1.90;;;20.60;92.50;;;;;;5056173;28;20167;-81
2022/07/31 01:26:44;;;;;;;3.92;1.80;;;20.60;92.50;;;;;;5055655;28;20279;-80
2022/07/31 01:29:27;;;;;;;4.07;1.73;;;20.60;92.40;;;;;;5058162;28;20502;-80
2022/07/31 01:31:52;;;;;;;3.72;1.70;;;20.70;92.40;;;;;;5056021;28;20033;-80
2022/07/31 01:34:30;;;;;;;4.55;1.92;;;20.60;92.40;;;;;;5057522;28;20036;-80
2022/07/31 01:37:02;;;;;;;4.15;1.80;;;20.60;92.30;;;;;;5055444;28;20032;-80
2022/07/31 01:39:32;;;;;;;3.58;1.67;;;20.60;92.40;;;;;;5055875;28;20029;-80
2022/07/31 01:42:00;;;;;;;5.50;2.00;;;20.60;92.40;;;;;;5057024;28;20383;-80
2022/07/31 01:44:27;;;;;;;3.47;1.70;;;20.60;92.40;;;;;;5057108;28;20107;-80
2022/07/31 01:46:56;;;;;;;4.78;2.03;;;20.50;92.40;;;;;;5055220;28;20029;-80
2022/07/31 01:49:24;;;;;;;5.82;1.90;;;20.50;92.40;;;;;;5054641;28;20090;-80
2022/07/31 01:51:51;;;;;;;4.80;1.90;;;20.50;92.20;;;;;;5054685;28;20120;-80
2022/07/31 01:54:18;;;;;;;3.22;1.65;;;20.50;92.20;;;;;;5054573;28;20021;-80
2022/07/31 01:56:46;;;;;;;4.57;1.88;;;20.50;92.30;;;;;;5040519;28;20030;-80
2022/07/31 01:59:13;;;;;;;4.40;2.00;;;20.50;92.20;;;;;;5048771;28;20033;-81
2022/07/31 02:01:41;;;;;;;4.85;2.08;;;20.50;92.10;;;;;;5076544;28;20021;-80
2022/07/31 02:04:07;;;;;;;4.65;2.17;;;20.50;92.10;;;;;;5076232;28;20029;-80
2022/07/31 02:06:33;;;;;;;4.10;1.75;;;20.50;92.10;;;;;;5076096;28;20481;-80
2022/07/31 02:09:00;;;;;;;4.43;1.95;;;20.50;92.10;;;;;;5076244;28;20541;-81
2022/07/31 02:11:26;;;;;;;6.38;2.10;;;20.50;92.00;;;;;;5077616;28;20016;-80
2022/07/31 02:13:52;;;;;;;3.53;1.88;;;20.50;92.00;;;;;;5069110;28;20032;-81
2022/07/31 02:16:19;;;;;;;3.55;1.65;;;20.50;91.90;;;;;;5055329;28;20120;-80
2022/07/31 02:18:50;;;;;;;3.85;1.90;;;20.50;91.80;;;;;;5055875;28;20487;-81
2022/07/31 02:21:16;;;;;;;3.75;1.75;;;20.60;91.80;;;;;;5046161;28;20048;-80
2022/07/31 02:23:41;;;;;;;5.68;2.15;;;20.60;91.70;;;;;;5052561;28;20032;-80
2022/07/31 02:26:07;;;;;;;3.90;1.90;;;20.60;91.80;;;;;;5062732;28;20027;-80
2022/07/31 02:28:36;;;;;;;4.22;1.90;;;20.50;91.80;;;;;;5076724;28;20403;-81
2022/07/31 02:31:03;;;;;;;4.82;1.83;;;20.50;91.80;;;;;;5076061;28;20028;-81
2022/07/31 02:33:30;;;;;;;4.68;2.00;;;20.50;91.90;;;;;;5076092;28;20028;-81
2022/07/31 02:35:58;;;;;;;4.50;2.25;;;20.50;91.90;;;;;;5074532;28;20047;-80
2022/07/31 02:38:26;;;;;;;4.05;1.75;;;20.50;92.20;;;;;;5074665;28;20028;-80
2022/07/31 02:40:57;;;;;;;4.75;1.95;;;20.50;91.90;;;;;;5076089;28;20020;-80
2022/07/31 02:43:25;;;;;;;4.22;1.70;;;20.50;92.00;;;;;;5074546;28;20106;-80
2022/07/31 02:45:51;;;;;;;6.55;2.00;;;20.50;92.00;;;;;;5076067;28;20029;-80
2022/07/31 02:48:17;;;;;;;5.03;2.17;;;20.40;92.00;;;;;;5075984;28;20081;-80
2022/07/31 02:50:42;;;;;;;3.83;1.77;;;20.40;92.00;;;;;;5065247;28;20126;-80
2022/07/31 02:53:08;;;;;;;5.00;2.10;;;20.40;92.00;;;;;;5054515;28;20061;-80
2022/07/31 02:55:34;;;;;;;4.40;1.92;;;20.40;92.00;;;;;;5055586;28;20029;-80
2022/07/31 02:58:02;;;;;;;4.88;2.10;;;20.40;92.00;;;;;;5054557;28;20031;-80
2022/07/31 03:00:28;;;;;;;5.63;2.00;;;20.30;92.00;;;;;;5054393;28;20027;-80
2022/07/31 03:02:55;;;;;;;4.57;1.95;;;20.50;92.00;;;;;;5055651;28;20104;-81
2022/07/31 03:05:21;;;;;;;3.85;1.80;;;20.40;91.90;;;;;;5055427;28;20535;-80
2022/07/31 03:07:47;;;;;;;4.40;1.80;;;20.50;91.90;;;;;;5054189;28;20287;-81
2022/07/31 03:10:13;;;;;;;4.55;1.80;;;20.50;91.80;;;;;;5054105;28;20083;-80
2022/07/31 03:12:44;;;;;;;3.35;1.70;;;20.50;91.80;;;;;;5055289;28;20041;-80
2022/07/31 03:15:15;;;;;;;;;;;20.50;91.80;;;;;;5053911;28;20081;-81
2022/07/31 03:17:42;;;;;;;5.00;1.73;;;20.50;91.90;;;;;;5055097;28;20009;-80
2022/07/31 03:20:09;;;;;;;3.30;1.70;;;20.40;91.90;;;;;;5053482;28;20028;-80
2022/07/31 03:22:35;;;;;;;3.50;1.70;;;20.50;91.90;;;;;;5053255;28;20082;-80
2022/07/31 03:25:02;;;;;;;4.75;2.08;;;20.40;91.90;;;;;;5053107;28;20029;-81
2022/07/31 03:27:28;;;;;;;4.20;1.77;;;20.40;91.90;;;;;;5055113;28;20049;-80
2022/07/31 03:29:53;;;;;;;4.20;1.95;;;20.40;91.90;;;;;;5053258;28;20044;-81
2022/07/31 03:32:19;;;;;;;3.55;1.88;;;20.40;92.00;;;;;;5053238;28;20036;-81
2022/07/31 03:34:45;;;;;;;4.43;1.80;;;20.40;92.00;;;;;;5052893;28;20052;-81
2022/07/31 03:37:11;;;;;;;3.55;1.77;;;20.40;92.00;;;;;;5054610;28;20025;-80
2022/07/31 03:39:37;;;;;;;3.47;1.65;;;20.40;92.00;;;;;;5053562;28;20025;-80
2022/07/31 03:42:03;;;;;;;3.00;1.70;;;20.40;92.00;;;;;;5053539;28;20033;-80
2022/07/31 03:44:30;;;;;;;3.17;1.80;;;20.40;92.00;;;;;;5054265;28;20484;-81
2022/07/31 03:46:56;;;;;;;5.32;2.08;;;20.40;92.00;;;;;;5057906;28;20077;-81
2022/07/31 03:49:23;;;;;;;4.22;2.00;;;20.40;92.00;;;;;;5057625;28;20029;-82
2022/07/31 03:51:48;;;;;;;4.22;1.90;;;20.40;92.00;;;;;;5055241;28;20040;-81
2022/07/31 03:54:14;;;;;;;3.00;1.80;;;20.40;91.90;;;;;;5056569;28;20017;-77
2022/07/31 03:56:43;;;;;;;3.17;1.77;;;20.40;91.90;;;;;;5053253;28;20028;-81
2022/07/31 03:59:09;;;;;;;3.63;1.85;;;20.40;91.90;;;;;;5056429;28;20088;-81
2022/07/31 04:01:35;;;;;;;3.20;1.58;;;20.40;91.80;;;;;;5055619;28;20115;-81
2022/07/31 04:04:01;;;;;;;3.42;1.80;;;20.40;91.80;;;;;;5055908;28;20430;-81
2022/07/31 04:06:27;;;;;;;4.55;2.08;;;20.40;91.80;;;;;;5053379;28;20040;-77
2022/07/31 04:08:52;;;;;;;4.57;1.85;;;20.40;91.90;;;;;;5051764;28;20021;-80
2022/07/31 04:11:18;;;;;;;4.45;1.80;;;20.40;91.90;;;;;;5054732;28;20075;-80
2022/07/31 04:13:43;;;;;;;4.07;1.85;;;20.40;91.90;;;;;;5054669;28;20021;-80
2022/07/31 04:16:08;;;;;;;3.65;1.80;;;20.40;91.90;;;;;;5055807;28;20051;-80
2022/07/31 04:18:34;;;;;;;3.65;1.95;;;20.40;91.90;;;;;;5054743;28;20021;-80
2022/07/31 04:20:59;;;;;;;3.53;1.90;;;20.40;91.90;;;;;;5053622;28;20021;-80
2022/07/31 04:23:25;;;;;;;3.78;1.88;;;20.40;91.90;;;;;;5043301;28;20467;-81
2022/07/31 04:25:51;;;;;;;3.75;1.80;;;20.40;92.00;;;;;;5047118;28;20045;-81
2022/07/31 04:28:16;;;;;;;3.17;1.70;;;20.30;91.90;;;;;;5034104;28;20124;-81
2022/07/31 04:30:42;;;;;;;3.67;1.77;;;20.40;92.00;;;;;;5041171;28;20064;-80
2022/07/31 04:33:08;;;;;;;4.40;1.67;;;20.30;91.90;;;;;;5047361;28;20017;-80
2022/07/31 04:35:33;;;;;;;4.25;1.90;;;20.40;92.00;;;;;;5053324;28;20103;-81
2022/07/31 04:37:59;;;;;;;3.33;1.77;;;20.30;91.90;;;;;;5038561;28;20029;-80
2022/07/31 04:40:26;;;;;;;2.70;1.50;;;20.40;92.00;;;;;;5039096;28;20026;-80
2022/07/31 04:42:52;;;;;;;3.70;1.73;;;20.40;91.90;;;;;;5037175;28;20029;-80
2022/07/31 04:45:17;;;;;;;3.33;1.65;;;20.40;91.90;;;;;;5038346;28;20037;-81
2022/07/31 04:47:43;;;;;;;4.00;1.70;;;20.40;91.80;;;;;;5038587;28;20489;-80
2022/07/31 04:50:08;;;;;;;3.95;1.80;;;20.40;91.80;;;;;;5036955;28;20112;-80
2022/07/31 04:52:34;;;;;;;3.03;1.70;;;20.40;91.70;;;;;;5036741;28;20036;-81
2022/07/31 04:55:00;;;;;;;4.20;1.90;;;20.50;91.80;;;;;;5046422;28;20108;-81
2022/07/31 04:57:25;;;;;;;4.32;1.80;;;20.40;91.80;;;;;;5058510;28;20075;-80
2022/07/31 04:59:50;;;;;;;3.10;1.50;;;20.40;91.80;;;;;;5048830;28;20022;-80
2022/07/31 05:02:16;;;;;;;3.78;1.90;;;20.40;91.80;;;;;;5036461;28;20120;-80
2022/07/31 05:04:41;;;;;;;4.93;1.98;;;20.40;91.80;;;;;;5036159;28;20120;-80
2022/07/31 05:07:07;;;;;;;4.00;1.90;;;20.40;91.80;;;;;;5036425;28;20032;-80
2022/07/31 05:09:34;;;;;;;2.95;1.80;;;20.30;91.90;;;;;;5042332;28;20120;-81
2022/07/31 05:12:00;;;;;;;4.25;1.90;;;20.30;91.90;;;;;;5035898;28;20584;-81
2022/07/31 05:14:26;;;;;;;4.10;2.10;;;20.30;91.80;;;;;;5037098;28;20025;-80
2022/07/31 05:16:51;;;;;;;3.13;1.60;;;20.30;91.80;;;;;;5035481;28;20025;-81
2022/07/31 05:19:17;;;;;;;3.90;1.85;;;20.30;91.90;;;;;;5039696;28;20472;-80
2022/07/31 05:21:44;;;;;;;4.75;1.70;;;20.30;91.90;;;;;;5039403;28;20091;-81
2022/07/31 05:24:10;;;;;;;4.00;2.03;;;20.30;91.90;;;;;;5036460;28;20500;-80
2022/07/31 05:26:35;;;;;;;4.07;1.95;;;20.30;91.90;;;;;;5051712;28;20116;-80
2022/07/31 05:29:01;;;;;;;4.63;2.22;;;20.30;92.00;;;;;;5057569;28;20031;-80
2022/07/31 05:31:27;;;;;;;3.05;1.60;;;20.30;92.00;;;;;;5055717;28;20047;-81
2022/07/31 05:33:53;;;;;;;3.38;1.80;;;20.40;92.00;;;;;;5055591;28;20032;-80
2022/07/31 05:36:19;;;;;;;3.88;1.98;;;20.20;91.80;;;;;;5043198;28;20057;-80
2022/07/31 05:38:44;;;;;;;3.13;1.67;;;20.40;91.80;;;;;;5052173;28;20025;-80
2022/07/31 05:41:11;;;;;;;3.75;1.90;;;20.40;91.80;;;;;;5055992;28;20028;-80
2022/07/31 05:43:36;;;;;;;3.33;1.85;;;20.50;91.80;;;;;;5057586;28;20040;-81
2022/07/31 05:46:04;;;;;;;3.42;1.90;;;20.50;91.80;;;;;;5055383;28;20476;-80
2022/07/31 05:48:29;;;;;;;4.38;1.88;;;20.40;91.80;;;;;;5055571;28;20124;-80
2022/07/31 05:50:55;;;;;;;3.88;2.00;;;20.40;91.80;;;;;;5056831;28;20064;-81
2022/07/31 05:53:21;;;;;;;2.97;1.65;;;20.40;91.80;;;;;;5055413;28;20495;-80
2022/07/31 05:55:48;;;;;;;2.80;1.60;;;20.40;91.80;;;;;;5055004;28;20067;-80
2022/07/31 05:58:14;;;;;;;3.17;1.80;;;20.40;91.80;;;;;;5052181;28;20028;-81
2022/07/31 06:00:42;;;;;;;3.35;1.70;;;20.40;91.80;;;;;;5035338;28;20033;-80
2022/07/31 06:03:07;;;;;;;3.63;1.70;;;20.40;91.70;;;;;;5034769;28;20034;-81
2022/07/31 06:05:33;;;;;;;3.33;1.63;;;20.40;91.80;;;;;;5039768;28;20037;-81
2022/07/31 06:08:00;;;;;;;3.65;1.67;;;20.40;91.90;;;;;;5039839;28;20037;-82
2022/07/31 06:10:26;;;;;;;3.33;1.70;;;20.40;91.80;;;;;;5047816;28;20121;-81
2022/07/31 06:12:52;;;;;;;3.08;1.75;;;20.40;91.80;;;;;;5058817;28;20056;-82
2022/07/31 06:15:17;;;;;;;3.58;2.00;;;20.40;91.80;;;;;;5040274;28;20448;-80
2022/07/31 06:17:43;;;;;;;4.28;2.00;;;20.40;91.80;;;;;;5038272;28;20059;-81
2022/07/31 06:20:10;;;;;;;2.83;1.88;;;20.40;91.80;;;;;;5037967;28;20041;-81
2022/07/31 06:22:38;;;;;;;2.85;1.70;;;20.40;91.80;;;;;;5049563;28;20029;-80
2022/07/31 06:25:04;;;;;;;3.83;1.88;;;20.40;91.70;;;;;;5056492;28;20039;-81
2022/07/31 06:27:30;;;;;;;2.75;1.60;;;20.40;91.60;;;;;;5036811;28;20075;-80
2022/07/31 06:29:56;;;;;;;4.45;1.95;;;20.40;91.60;;;;;;5036557;28;20025;-80
2022/07/31 06:32:22;;;;;;;3.20;1.95;;;20.50;91.60;;;;;;5036625;28;20036;-80
2022/07/31 06:34:48;;;;;;;4.75;1.90;;;20.50;91.50;;;;;;5035727;28;20021;-80
2022/07/31 06:37:13;;;;;;;3.10;1.80;;;20.40;91.50;;;;;;5036322;28;20026;-81
2022/07/31 06:39:39;;;;;;;3.90;2.25;;;20.40;91.60;;;;;;5043283;28;20021;-80
2022/07/31 06:42:05;;;;;;;4.35;1.88;;;20.40;91.50;;;;;;5038395;28;20028;-80
2022/07/31 06:44:32;;;;;;;3.78;1.70;;;20.40;91.60;;;;;;5046331;28;20026;-80
2022/07/31 06:46:58;;;;;;;3.25;1.65;;;20.40;91.60;;;;;;5046170;28;20025;-81
2022/07/31 06:49:23;;;;;;;3.53;1.85;;;20.40;91.70;;;;;;5056363;28;20029;-80
2022/07/31 06:51:49;;;;;;;3.63;1.90;;;20.40;91.70;;;;;;5056292;28;20063;-81
2022/07/31 06:54:14;;;;;;;3.17;1.80;;;20.40;91.70;;;;;;5042422;28;20033;-80
2022/07/31 07:04:40;;;;;;;3.42;1.70;;;20.50;91.80;;;;;;4927012;28;20145;-79
2022/07/31 07:07:31;;;;;;;3.40;2.10;;;20.50;91.80;;;;;;4959477;28;20019;-79
2022/07/31 07:13:29;;;;;;;2.92;1.80;;;20.30;91.70;;;;;;4939869;29;20032;-80
2022/07/31 07:23:23;;;;;;;3.30;1.83;;;20.50;91.50;;;;;;4996945;28;20033;-80
2022/07/31 07:33:04;;;;;;;2.72;1.55;;;20.40;91.30;;;;;;4942445;29;20054;-79
2022/07/31 07:35:41;;;;;;;3.03;1.88;;;20.60;91.40;;;;;;4941558;29;20062;-80
2022/07/31 07:42:32;;;;;;;3.00;1.98;;;20.40;91.40;;;;;;4937311;29;20054;-80
2022/07/31 08:05:34;;;;;;;2.92;1.70;;;20.50;91.50;;;;;;5014849;28;20061;-79
2022/07/31 08:07:59;;;;;;;3.15;1.90;;;20.50;91.40;;;;;;5017775;28;20030;-82
2022/07/31 08:15:29;;;;;;;;;;;;;;;;;;;;;
2022/07/31 08:18:51;;;;;;;;;;;;;;;;;;;;;
2022/07/31 08:22:55;;;;;;;;;;;;;;;;;;;;;
2022/07/31 08:44:54;;;;;;;3.72;1.80;;;20.50;91.20;;;;;;4970093;28;20530;-76
2022/07/31 08:48:03;;;;;;;5.00;1.80;;;20.40;91.20;;;;;;4951886;29;20041;-77
2022/07/31 08:50:46;;;;;;;;;;;20.50;91.30;;;;;;4931584;29;20123;-76
2022/07/31 09:04:14;;;;;;;;;;;20.50;90.90;;;;;;4967626;28;20114;-76
2022/07/31 09:10:36;;;;;;;5.43;2.10;;;20.60;90.90;;;;;;4857221;29;20670;-76
2022/07/31 09:14:05;;;;;;;;;;;;;;;;;;;;;
2022/07/31 09:34:40;;;;;;;5.60;2.13;;;20.50;91.20;;;;;;5011980;28;20058;-77
2022/07/31 09:37:20;;;;;;;4.50;1.83;;;20.50;91.20;;;;;;4995627;28;20153;-76
2022/07/31 09:39:50;;;;;;;3.20;1.83;;;20.50;91.20;;;;;;4994023;28;20029;-77
2022/07/31 09:42:16;;;;;;;4.38;2.00;;;20.50;91.20;;;;;;4993863;28;20127;-76
2022/07/31 09:44:47;;;;;;;5.07;2.00;;;20.50;91.20;;;;;;4993599;28;20135;-77
2022/07/31 09:47:27;;;;;;;5.75;1.90;;;20.50;91.20;;;;;;4994924;28;20141;-76
2022/07/31 09:49:54;;;;;;;;;;;20.60;91.10;;;;;;4995557;28;20027;-79
2022/07/31 09:52:20;;;;;;;4.90;1.90;;;20.60;91.10;;;;;;4998956;28;19914;-81
2022/07/31 09:54:46;;;;;;;5.43;1.92;;;20.60;91.00;;;;;;4997838;28;20161;-81
2022/07/31 09:57:14;;;;;;;4.55;2.00;;;20.60;90.90;;;;;;4997974;28;20061;-80
2022/07/31 09:59:39;;;;;;;5.97;1.95;;;20.60;90.90;;;;;;4998210;28;20413;-80
2022/07/31 10:02:07;;;;;;;6.03;2.00;;;20.60;90.90;;;;;;4997706;28;20026;-81
2022/07/31 10:04:34;;;;;;;3.67;2.08;;;20.60;90.90;;;;;;4998136;28;20033;-80
2022/07/31 10:07:00;;;;;;;3.90;1.88;;;20.60;91.00;;;;;;4998334;28;20393;-82
2022/07/31 10:09:26;;;;;;;3.67;2.10;;;20.60;91.00;;;;;;4998373;28;20110;-80
2022/07/31 10:11:55;;;;;;;5.20;1.90;;;20.60;91.00;;;;;;4998525;28;20498;-80
2022/07/31 10:14:28;;;;;;;4.15;2.00;;;20.60;91.00;;;;;;4996864;28;20030;-79
2022/07/31 10:16:57;;;;;;;4.20;2.10;;;20.60;91.00;;;;;;4995929;28;20033;-78
2022/07/31 10:19:25;;;;;;;4.70;1.80;;;20.70;91.00;;;;;;4996629;28;20054;-77
2022/07/31 10:21:55;;;;;;;6.57;2.38;;;20.60;91.00;;;;;;4997891;28;20027;-79
2022/07/31 10:40:53;;;;;;;3.28;1.80;;;20.60;90.90;;;;;;5095404;27;1419745;-80
2022/07/31 10:43:42;;;;;;;3.58;2.00;;;20.70;90.90;;;;;;5064299;28;20044;-78
2022/07/31 10:46:36;;;;;;;4.80;2.00;;;20.70;90.90;;;;;;5068621;28;20635;-78
2022/07/31 10:49:03;;;;;;;4.10;1.90;;;20.70;90.90;;;;;;5135634;27;20129;-77
2022/07/31 10:52:06;;;;;;;5.10;1.80;;;20.60;90.90;;;;;;5150797;27;20023;-77
2022/07/31 10:55:14;;;;;;;4.00;2.10;;;20.70;91.00;;;;;;5132172;27;20030;-77
2022/07/31 10:57:50;;;;;;;4.67;2.00;;;20.60;91.00;;;;;;5119493;27;20694;-77
2022/07/31 11:00:30;;;;;;;4.35;1.95;;;20.60;91.10;;;;;;5150146;27;20030;-77
2022/07/31 11:03:10;;;;;;;3.90;2.00;;;20.60;91.10;;;;;;5147651;27;20037;-77
2022/07/31 11:06:33;;;;;;;3.00;1.80;;;20.60;91.20;;;;;;5136148;27;20023;-79
2022/07/31 11:09:54;;;;;;;3.40;1.90;;;20.60;91.20;;;;;;5021655;28;20091;-77
2022/07/31 11:16:11;;;;;;;3.35;2.00;;;20.60;91.20;;;;;;4932053;28;20032;-80
2022/07/31 11:22:44;;;;;;;;;;;;;;;;;;;;;
2022/07/31 11:35:41;;;;;;;5.33;2.10;;;20.70;91.00;;;;;;4986718;28;20078;-76
2022/07/31 11:38:56;;;;;;;4.65;2.08;;;20.70;90.80;;;;;;4990715;28;20292;-79
2022/07/31 11:41:27;;;;;;;4.95;2.20;;;20.80;90.90;;;;;;4994230;28;20137;-79
2022/07/31 11:43:54;;;;;;;6.10;2.80;;;20.70;90.40;;;;;;5017904;28;20022;-82
2022/07/31 11:46:25;;;;;;;6.47;2.38;;;20.60;90.40;;;;;;5071631;28;20051;-79
2022/07/31 11:48:51;;;;;;;8.07;2.90;;;20.60;90.40;;;;;;5118371;28;20024;-80
2022/07/31 11:51:18;;;;;;;6.85;3.38;;;20.60;89.70;;;;;;5118925;28;20282;-80
2022/07/31 11:53:44;;;;;;;8.18;3.67;;;20.60;89.20;;;;;;5101506;28;20047;-80
2022/07/31 11:56:10;;;;;;;8.43;3.47;;;20.60;89.20;;;;;;5117551;28;20376;-77
2022/07/31 11:58:36;;;;;;;6.80;3.70;;;20.60;88.90;;;;;;5117510;27;20041;-77
2022/07/31 12:01:03;;;;;;;9.10;4.03;;;20.50;89.00;;;;;;5135233;27;20479;-77
2022/07/31 12:03:35;;;;;;;7.93;4.22;;;20.40;87.50;;;;;;5116634;27;20119;-77
2022/07/31 12:06:01;;;;;;;8.55;4.22;;;20.40;87.40;;;;;;5118433;27;20076;-82
2022/07/31 12:08:28;;;;;;;8.15;4.55;;;20.50;86.90;;;;;;5115929;27;20031;-78
2022/07/31 12:10:55;;;;;;;8.07;3.80;;;20.40;86.70;;;;;;5117633;28;20012;-79
2022/07/31 12:13:23;;;;;;;8.13;4.28;;;20.40;86.70;;;;;;5117963;28;20023;-77
2022/07/31 12:16:04;;;;;;;6.68;4.00;;;20.40;86.20;;;;;;5115293;28;20024;-78
2022/07/31 12:18:32;;;;;;;7.03;3.92;;;20.40;86.70;;;;;;5117295;27;20066;-77
2022/07/31 12:21:03;;;;;;;8.07;3.85;;;20.40;87.10;;;;;;5109836;28;20027;-76
2022/07/31 12:23:43;;;;;;;6.50;3.88;;;20.40;86.60;;;;;;5099678;27;20027;-76
2022/07/31 12:26:09;;;;;;;;;;;20.50;86.20;;;;;;5122250;27;20062;-76
2022/07/31 12:28:35;;;;;;;7.53;3.45;;;20.50;86.10;;;;;;5105781;27;19935;-77
2022/07/31 12:31:00;;;;;;;6.68;3.50;;;20.60;86.00;;;;;;5129951;27;20034;-78
2022/07/31 12:33:27;;;;;;;6.60;3.55;;;20.50;86.10;;;;;;5135256;27;20534;-78
2022/07/31 12:35:53;;;;;;;6.82;4.10;;;20.60;86.20;;;;;;5134887;27;20019;-77
2022/07/31 12:38:26;;;;;;;7.57;3.75;;;20.60;87.00;;;;;;5116994;27;20023;-77
2022/07/31 12:41:12;;;;;;;7.22;3.58;;;20.60;86.70;;;;;;5135202;27;20398;-77
2022/07/31 12:43:37;;;;;;;6.90;3.72;;;20.50;86.80;;;;;;5116904;27;20059;-77
2022/07/31 12:46:06;;;;;;;7.15;3.60;;;20.50;87.00;;;;;;5134967;27;20429;-77
2022/07/31 12:48:32;;;;;;;6.30;3.55;;;20.50;87.20;;;;;;5115885;27;20031;-77
2022/07/31 12:50:59;;;;;;;6.57;3.70;;;20.50;87.30;;;;;;5115740;28;20050;-77
2022/07/31 12:53:26;;;;;;;5.45;3.50;;;20.50;87.40;;;;;;5116913;27;20031;-77
2022/07/31 12:55:51;;;;;;;6.13;3.67;;;20.50;87.50;;;;;;5116517;27;20046;-77
2022/07/31 12:58:17;;;;;;;5.97;3.55;;;20.50;87.60;;;;;;5116714;27;20066;-76
2022/07/31 13:00:42;;;;;;;5.78;3.58;;;20.50;87.80;;;;;;5135678;27;20023;-78
2022/07/31 13:03:08;;;;;;;6.30;3.80;;;20.50;87.90;;;;;;5116383;27;20023;-77
2022/07/31 13:05:33;;;;;;;6.22;3.60;;;20.50;88.00;;;;;;5116323;27;20503;-77
2022/07/31 13:07:59;;;;;;;6.28;3.50;;;20.50;88.10;;;;;;5116433;27;20042;-79
2022/07/31 13:10:25;;;;;;;8.32;3.67;;;20.50;88.30;;;;;;5116963;27;20046;-77
2022/07/31 13:12:51;;;;;;;5.30;3.25;;;20.50;88.30;;;;;;5135548;27;20026;-78
2022/07/31 13:15:19;;;;;;;7.30;3.50;;;20.60;88.30;;;;;;5116324;27;20612;-77
2022/07/31 13:17:45;;;;;;;20.30;4.90;;;20.60;88.20;;;;;;5136958;27;20023;-78
2022/07/31 13:20:11;;;;;;;17.80;4.22;;;20.60;88.50;;;;;;5116446;27;20023;-78
2022/07/31 13:22:37;;;;;;;16.75;4.63;;;20.70;88.30;;;;;;5116457;27;20023;-77
2022/07/31 13:25:04;;;;;;;16.50;4.22;;;20.60;88.80;;;;;;5116389;27;20030;-78
2022/07/31 13:27:29;;;;;;;15.13;4.57;;;20.60;88.30;;;;;;5116214;27;20027;-78
2022/07/31 13:29:55;;;;;;;16.95;4.55;;;20.60;88.30;;;;;;5134336;27;20113;-78
2022/07/31 13:32:20;;;;;;;12.45;3.70;;;20.60;88.40;;;;;;5116445;27;20026;-78
2022/07/31 13:34:46;;;;;;;13.52;4.25;;;20.60;88.80;;;;;;5116391;27;20072;-79
2022/07/31 13:37:11;;;;;;;12.48;4.05;;;20.60;89.00;;;;;;5134666;27;20042;-78
2022/07/31 13:39:37;;;;;;;12.77;4.35;;;20.60;89.40;;;;;;5115854;27;20027;-78
2022/07/31 13:42:02;;;;;;;8.20;3.75;;;20.70;89.70;;;;;;5134386;27;20411;-78
2022/07/31 13:44:28;;;;;;;17.40;4.40;;;20.70;89.90;;;;;;5116293;27;20098;-79
2022/07/31 13:46:53;;;;;;;10.75;3.83;;;20.70;89.90;;;;;;5116276;27;20777;-78
2022/07/31 13:49:19;;;;;;;9.52;3.80;;;20.70;90.10;;;;;;5115487;27;20483;-78
2022/07/31 13:51:45;;;;;;;12.18;4.10;;;20.80;90.20;;;;;;5116057;27;20024;-78
2022/07/31 13:54:11;;;;;;;10.73;3.60;;;20.90;90.50;;;;;;5134053;27;20019;-78
2022/07/31 13:56:38;;;;;;;12.60;3.63;;;21.00;91.00;;;;;;5115381;27;20021;-78
2022/07/31 13:59:03;;;;;;;10.48;3.80;;;21.20;91.40;;;;;;5115477;27;20034;-78
2022/07/31 14:01:30;;;;;;;9.98;3.70;;;21.30;91.80;;;;;;5116494;27;20027;-78
2022/07/31 14:03:55;;;;;;;9.93;3.10;;;21.40;91.80;;;;;;5134867;27;20027;-79
2022/07/31 14:06:20;;;;;;;11.68;3.78;;;21.60;92.00;;;;;;5116914;27;20110;-78
2022/07/31 14:08:46;;;;;;;12.02;4.28;;;21.60;91.90;;;;;;5116419;27;20072;-78
2022/07/31 14:11:11;;;;;;;12.95;3.85;;;21.70;91.90;;;;;;5117345;28;20099;-78
2022/07/31 14:13:37;;;;;;;8.35;3.83;;;21.80;92.00;;;;;;5135726;27;20054;-78
2022/07/31 14:16:03;;;;;;;12.57;4.30;;;21.80;92.10;;;;;;5135123;27;20031;-78
2022/07/31 14:18:31;;;;;;;12.55;4.40;;;21.90;92.40;;;;;;5116427;27;20027;-78
2022/07/31 14:20:57;;;;;;;11.77;4.38;;;21.90;92.50;;;;;;5134662;27;20050;-78
2022/07/31 14:23:22;;;;;;;13.85;4.80;;;21.90;92.70;;;;;;5116444;28;20049;-78
2022/07/31 14:25:48;;;;;;;14.10;4.90;;;21.90;92.80;;;;;;5116335;28;20030;-78
2022/07/31 14:28:13;;;;;;;14.68;4.68;;;22.00;92.80;;;;;;5134711;28;20027;-78
2022/07/31 14:30:44;;;;;;;13.70;4.75;;;22.00;92.90;;;;;;5116298;28;20019;-78
2022/07/31 14:33:10;;;;;;;;;;;22.10;93.00;;;;;;5135378;28;20018;-78
2022/07/31 14:35:36;;;;;;;15.45;5.63;;;22.00;92.80;;;;;;5134789;28;19903;-78
2022/07/31 14:38:01;;;;;;;15.85;6.13;;;22.10;92.90;;;;;;5117128;28;20019;-78
2022/07/31 14:40:29;;;;;;;17.55;6.63;;;22.10;92.90;;;;;;5134761;27;20035;-79
2022/07/31 14:42:55;;;;;;;16.98;6.43;;;22.10;92.70;;;;;;5117362;28;20154;-78
2022/07/31 14:45:21;;;;;;;16.38;6.07;;;22.10;92.60;;;;;;5134539;28;20027;-78
2022/07/31 14:47:48;;;;;;;15.90;5.82;;;22.20;92.50;;;;;;5136665;28;20253;-79
2022/07/31 14:50:13;;;;;;;20.17;7.00;;;22.20;92.20;;;;;;5135768;27;20015;-79
2022/07/31 14:52:39;;;;;;;17.42;6.75;;;22.30;92.00;;;;;;5135847;28;20023;-78
2022/07/31 14:55:05;;;;;;;17.13;6.47;;;22.30;91.80;;;;;;5136512;28;20031;-79
2022/07/31 14:57:30;;;;;;;19.33;6.57;;;22.30;91.50;;;;;;5117488;28;20548;-78
2022/07/31 14:59:57;;;;;;;19.30;6.38;;;22.40;91.50;;;;;;5135315;27;20031;-78
2022/07/31 15:02:22;;;;;;;15.50;5.80;;;22.20;91.50;;;;;;5117259;28;20023;-78
2022/07/31 15:04:48;;;;;;;18.80;6.82;;;22.10;91.80;;;;;;5117537;28;20049;-78
2022/07/31 15:07:13;;;;;;;15.75;5.95;;;22.00;92.00;;;;;;5135021;28;20050;-78
2022/07/31 15:09:39;;;;;;;16.92;6.72;;;21.90;92.10;;;;;;5116485;28;20023;-79
2022/07/31 15:12:05;;;;;;;18.48;6.53;;;21.80;92.30;;;;;;5116565;28;20038;-78
2022/07/31 15:14:31;;;;;;;15.02;6.40;;;21.80;92.50;;;;;;5117976;27;20023;-78
2022/07/31 15:16:56;;;;;;;13.63;6.28;;;21.70;92.70;;;;;;5139185;27;20072;-78
2022/07/31 15:19:22;;;;;;;20.83;5.97;;;21.60;92.70;;;;;;5120179;27;20028;-78
2022/07/31 15:21:47;;;;;;;16.65;6.03;;;21.60;92.70;;;;;;5120181;27;20037;-78
2022/07/31 15:24:13;;;;;;;16.75;6.22;;;21.60;92.70;;;;;;5120078;27;20062;-78